sensor_id;sensor_type;location;lat;lon;timestamp;pressure;altitude;pressure_sealevel;temperature;humidity
73671;BME280;61968;48.178;11.566;2024-02-15T00:01:40;96274.09;;;9.33;39.63
73671;BME280;61968;48.178;11.566;2024-02-15T00:04:07;96272.03;;;9.42;39.30
73671;BME280;61968;48.178;11.566;2024-02-15T00:06:34;96272.06;;;9.35;39.43
73671;BME280;61968;48.178;11.566;2024-02-15T00:09:02;96268.25;;;9.31;39.59
73671;BME280;61968;48.178;11.566;2024-02-15T00:11:29;96266.59;;;9.30;39.84
73671;BME280;61968;48.178;11.566;2024-02-15T00:13:55;96266.44;;;9.25;39.84
73671;BME280;61968;48.178;11.566;2024-02-15T00:16:21;96264.81;;;9.24;39.45
73671;BME280;61968;48.178;11.566;2024-02-15T00:18:48;96259.28;;;9.32;39.74
73671;BME280;61968;48.178;11.566;2024-02-15T00:21:15;96259.91;;;9.34;39.29
73671;BME280;61968;48.178;11.566;2024-02-15T00:23:41;96253.63;;;9.29;39.77
73671;BME280;61968;48.178;11.566;2024-02-15T00:26:09;96257.50;;;9.26;39.66
73671;BME280;61968;48.178;11.566;2024-02-15T00:28:37;96257.69;;;9.24;39.51
73671;BME280;61968;48.178;11.566;2024-02-15T00:31:03;96262.97;;;9.24;39.41
73671;BME280;61968;48.178;11.566;2024-02-15T00:33:30;96264.41;;;9.20;39.78
73671;BME280;61968;48.178;11.566;2024-02-15T00:35:56;96255.88;;;9.25;39.49
73671;BME280;61968;48.178;11.566;2024-02-15T00:38:23;96255.28;;;9.23;39.54
73671;BME280;61968;48.178;11.566;2024-02-15T00:40:49;96252.22;;;9.26;39.24
73671;BME280;61968;48.178;11.566;2024-02-15T00:43:17;96255.69;;;9.20;39.39
73671;BME280;61968;48.178;11.566;2024-02-15T00:45:44;96259.75;;;9.22;39.36
73671;BME280;61968;48.178;11.566;2024-02-15T00:48:11;96260.56;;;9.23;38.94
73671;BME280;61968;48.178;11.566;2024-02-15T00:50:37;96262.16;;;9.24;39.01
73671;BME280;61968;48.178;11.566;2024-02-15T00:53:04;96266.44;;;9.18;39.05
73671;BME280;61968;48.178;11.566;2024-02-15T00:55:31;96260.34;;;9.18;39.27
73671;BME280;61968;48.178;11.566;2024-02-15T00:57:57;96265.63;;;9.18;39.21
73671;BME280;61968;48.178;11.566;2024-02-15T01:00:25;96258.09;;;9.21;39.02
73671;BME280;61968;48.178;11.566;2024-02-15T01:02:52;96264.81;;;9.24;38.73
73671;BME280;61968;48.178;11.566;2024-02-15T01:05:19;96258.94;;;9.15;38.87
73671;BME280;61968;48.178;11.566;2024-02-15T01:07:47;96266.25;;;9.20;39.05
73671;BME280;61968;48.178;11.566;2024-02-15T01:10:14;96271.28;;;9.21;38.93
73671;BME280;61968;48.178;11.566;2024-02-15T01:12:40;96265.66;;;9.11;39.00
73671;BME280;61968;48.178;11.566;2024-02-15T01:15:07;96264.63;;;9.12;39.22
73671;BME280;61968;48.178;11.566;2024-02-15T01:17:35;96262.81;;;9.13;39.05
73671;BME280;61968;48.178;11.566;2024-02-15T01:20:02;96269.50;;;9.09;39.28
73671;BME280;61968;48.178;11.566;2024-02-15T01:22:29;96265.69;;;9.05;39.22
73671;BME280;61968;48.178;11.566;2024-02-15T01:24:56;96260.00;;;9.01;39.37
73671;BME280;61968;48.178;11.566;2024-02-15T01:27:23;96254.53;;;9.02;39.08
73671;BME280;61968;48.178;11.566;2024-02-15T01:29:49;96261.00;;;9.07;39.21
73671;BME280;61968;48.178;11.566;2024-02-15T01:32:17;96261.63;;;9.02;39.21
73671;BME280;61968;48.178;11.566;2024-02-15T01:34:44;96258.78;;;9.03;39.19
73671;BME280;61968;48.178;11.566;2024-02-15T01:37:11;96256.97;;;8.97;39.29
73671;BME280;61968;48.178;11.566;2024-02-15T01:39:37;96259.59;;;8.97;39.34
73671;BME280;61968;48.178;11.566;2024-02-15T01:42:04;96253.50;;;9.03;39.08
73671;BME280;61968;48.178;11.566;2024-02-15T01:44:30;96255.53;;;9.01;39.15
73671;BME280;61968;48.178;11.566;2024-02-15T01:46:57;96249.47;;;8.94;39.39
73671;BME280;61968;48.178;11.566;2024-02-15T01:49:24;96244.19;;;8.94;39.29
73671;BME280;61968;48.178;11.566;2024-02-15T01:51:54;96238.72;;;8.96;39.22
73671;BME280;61968;48.178;11.566;2024-02-15T01:54:23;96239.09;;;8.99;39.20
73671;BME280;61968;48.178;11.566;2024-02-15T01:56:50;96240.53;;;9.02;39.17
73671;BME280;61968;48.178;11.566;2024-02-15T01:59:18;96244.19;;;9.01;39.04
73671;BME280;61968;48.178;11.566;2024-02-15T02:01:45;96248.47;;;8.95;39.29
73671;BME280;61968;48.178;11.566;2024-02-15T02:04:11;96239.16;;;8.86;39.41
73671;BME280;61968;48.178;11.566;2024-02-15T02:06:38;96239.16;;;8.86;39.42
73671;BME280;61968;48.178;11.566;2024-02-15T02:09:10;96248.69;;;8.87;39.41
73671;BME280;61968;48.178;11.566;2024-02-15T02:11:38;96232.03;;;8.93;39.42
73671;BME280;61968;48.178;11.566;2024-02-15T02:14:03;96224.31;;;8.98;39.22
73671;BME280;61968;48.178;11.566;2024-02-15T02:16:31;96241.34;;;9.02;39.19
73671;BME280;61968;48.178;11.566;2024-02-15T02:18:58;96240.53;;;9.02;39.32
73671;BME280;61968;48.178;11.566;2024-02-15T02:21:25;96233.19;;;9.11;39.27
73671;BME280;61968;48.178;11.566;2024-02-15T02:23:54;96229.94;;;9.09;39.33
73671;BME280;61968;48.178;11.566;2024-02-15T02:26:24;96231.41;;;9.05;39.06
73671;BME280;61968;48.178;11.566;2024-02-15T02:28:51;96233.22;;;9.04;39.30
73671;BME280;61968;48.178;11.566;2024-02-15T02:31:18;96229.34;;;9.07;39.36
73671;BME280;61968;48.178;11.566;2024-02-15T02:33:47;96227.91;;;9.11;39.29
73671;BME280;61968;48.178;11.566;2024-02-15T02:36:14;96228.13;;;9.09;39.07
73671;BME280;61968;48.178;11.566;2024-02-15T02:38:42;96226.31;;;9.10;39.43
73671;BME280;61968;48.178;11.566;2024-02-15T02:41:10;96231.56;;;9.16;39.22
73671;BME280;61968;48.178;11.566;2024-02-15T02:43:38;96230.75;;;9.16;39.26
73671;BME280;61968;48.178;11.566;2024-02-15T02:46:05;96231.75;;;9.15;39.25
73671;BME280;61968;48.178;11.566;2024-02-15T02:48:31;96233.97;;;9.18;39.06
73671;BME280;61968;48.178;11.566;2024-02-15T02:50:57;96234.81;;;9.12;39.04
73671;BME280;61968;48.178;11.566;2024-02-15T02:53:24;96228.72;;;9.11;39.03
73671;BME280;61968;48.178;11.566;2024-02-15T02:55:51;96221.22;;;9.08;39.37
73671;BME280;61968;48.178;11.566;2024-02-15T02:58:17;96223.44;;;9.11;39.11
73671;BME280;61968;48.178;11.566;2024-02-15T03:00:46;96220.44;;;9.08;39.41
73671;BME280;61968;48.178;11.566;2024-02-15T03:03:12;96218.19;;;9.05;39.31
73671;BME280;61968;48.178;11.566;2024-02-15T03:05:38;96217.81;;;9.01;39.36
73671;BME280;61968;48.178;11.566;2024-02-15T03:08:05;96223.66;;;9.03;39.56
73671;BME280;61968;48.178;11.566;2024-02-15T03:10:33;96221.03;;;9.10;39.26
73671;BME280;61968;48.178;11.566;2024-02-15T03:13:00;96224.25;;;9.12;38.96
73671;BME280;61968;48.178;11.566;2024-02-15T03:15:27;96217.78;;;9.08;39.04
73671;BME280;61968;48.178;11.566;2024-02-15T03:17:55;96217.59;;;9.02;39.19
73671;BME280;61968;48.178;11.566;2024-02-15T03:20:21;96230.78;;;9.02;39.41
73671;BME280;61968;48.178;11.566;2024-02-15T03:22:51;96227.94;;;9.04;39.42
73671;BME280;61968;48.178;11.566;2024-02-15T03:25:18;96228.16;;;9.02;39.16
73671;BME280;61968;48.178;11.566;2024-02-15T03:27:45;96230.16;;;9.00;39.45
73671;BME280;61968;48.178;11.566;2024-02-15T03:30:12;96229.75;;;9.03;39.55
73671;BME280;61968;48.178;11.566;2024-02-15T03:32:39;96224.47;;;9.03;39.40
73671;BME280;61968;48.178;11.566;2024-02-15T03:35:07;96221.84;;;9.03;39.57
73671;BME280;61968;48.178;11.566;2024-02-15T03:37:34;96227.13;;;9.03;39.35
73671;BME280;61968;48.178;11.566;2024-02-15T03:40:02;96225.50;;;9.02;39.56
73671;BME280;61968;48.178;11.566;2024-02-15T03:42:30;96225.50;;;9.02;39.50
73671;BME280;61968;48.178;11.566;2024-02-15T03:44:56;96228.94;;;9.03;39.44
73671;BME280;61968;48.178;11.566;2024-02-15T03:47:22;96226.72;;;9.00;39.32
73671;BME280;61968;48.178;11.566;2024-02-15T03:49:49;96221.03;;;9.03;39.19
73671;BME280;61968;48.178;11.566;2024-02-15T03:52:17;96223.91;;;9.01;39.35
73671;BME280;61968;48.178;11.566;2024-02-15T03:54:43;96229.97;;;9.02;39.56
73671;BME280;61968;48.178;11.566;2024-02-15T03:57:10;96225.50;;;9.02;39.52
73671;BME280;61968;48.178;11.566;2024-02-15T03:59:37;96230.78;;;9.02;39.50
73671;BME280;61968;48.178;11.566;2024-02-15T04:02:05;96234.44;;;9.01;39.29
73671;BME280;61968;48.178;11.566;2024-02-15T04:04:37;96230.41;;;8.99;39.19
73671;BME280;61968;48.178;11.566;2024-02-15T04:07:07;96238.31;;;8.99;39.41
73671;BME280;61968;48.178;11.566;2024-02-15T04:09:35;96231.19;;;8.99;39.13
73671;BME280;61968;48.178;11.566;2024-02-15T04:12:02;96235.06;;;8.97;39.24
73671;BME280;61968;48.178;11.566;2024-02-15T04:14:28;96231.59;;;8.96;39.40
73671;BME280;61968;48.178;11.566;2024-02-15T04:16:55;96235.84;;;8.97;39.12
73671;BME280;61968;48.178;11.566;2024-02-15T04:19:22;96239.53;;;8.96;39.36
73671;BME280;61968;48.178;11.566;2024-02-15T04:21:49;96245.81;;;8.95;39.42
73671;BME280;61968;48.178;11.566;2024-02-15T04:24:16;96235.69;;;8.92;39.45
73671;BME280;61968;48.178;11.566;2024-02-15T04:26:44;96237.53;;;8.92;39.52
73671;BME280;61968;48.178;11.566;2024-02-15T04:29:12;96234.06;;;8.91;39.34
73671;BME280;61968;48.178;11.566;2024-02-15T04:31:40;96230.84;;;8.89;39.32
73671;BME280;61968;48.178;11.566;2024-02-15T04:34:08;96234.69;;;8.87;39.36
73671;BME280;61968;48.178;11.566;2024-02-15T04:36:35;96233.88;;;8.86;39.39
73671;BME280;61968;48.178;11.566;2024-02-15T04:39:01;96238.75;;;8.89;39.17
73671;BME280;61968;48.178;11.566;2024-02-15T04:41:29;96239.75;;;8.88;39.26
73671;BME280;61968;48.178;11.566;2024-02-15T04:43:57;96238.13;;;8.87;39.30
73671;BME280;61968;48.178;11.566;2024-02-15T04:46:23;96241.78;;;8.86;39.44
73671;BME280;61968;48.178;11.566;2024-02-15T04:48:50;96241.41;;;8.83;39.11
73671;BME280;61968;48.178;11.566;2024-02-15T04:51:17;96236.94;;;8.76;39.21
73671;BME280;61968;48.178;11.566;2024-02-15T04:53:45;96235.31;;;8.75;39.46
73671;BME280;61968;48.178;11.566;2024-02-15T04:56:12;96240.81;;;8.74;39.49
73671;BME280;61968;48.178;11.566;2024-02-15T04:58:40;96243.06;;;8.70;39.33
73671;BME280;61968;48.178;11.566;2024-02-15T05:01:13;96236.94;;;8.63;39.11
73671;BME280;61968;48.178;11.566;2024-02-15T05:03:40;96237.16;;;8.62;39.43
73671;BME280;61968;48.178;11.566;2024-02-15T05:06:07;96232.88;;;8.61;39.25
73671;BME280;61968;48.178;11.566;2024-02-15T05:08:34;96241.19;;;8.57;39.38
73671;BME280;61968;48.178;11.566;2024-02-15T05:11:02;96238.78;;;8.56;39.32
73671;BME280;61968;48.178;11.566;2024-02-15T05:13:30;96233.28;;;8.51;39.26
73671;BME280;61968;48.178;11.566;2024-02-15T05:15:57;96222.97;;;8.49;38.98
73671;BME280;61968;48.178;11.566;2024-02-15T05:18:25;96224.38;;;8.58;39.01
73671;BME280;61968;48.178;11.566;2024-02-15T05:20:51;96233.50;;;8.49;38.94
73671;BME280;61968;48.178;11.566;2024-02-15T05:23:17;96225.00;;;8.41;39.57
73671;BME280;61968;48.178;11.566;2024-02-15T05:25:44;96228.03;;;8.44;39.24
73671;BME280;61968;48.178;11.566;2024-02-15T05:28:10;96224.38;;;8.39;39.25
73671;BME280;61968;48.178;11.566;2024-02-15T05:30:37;96227.03;;;8.39;39.20
73671;BME280;61968;48.178;11.566;2024-02-15T05:33:04;96230.28;;;8.41;39.35
73671;BME280;61968;48.178;11.566;2024-02-15T05:35:36;96222.16;;;8.42;39.09
73671;BME280;61968;48.178;11.566;2024-02-15T05:38:04;96222.56;;;8.39;39.44
73671;BME280;61968;48.178;11.566;2024-02-15T05:40:32;96225.00;;;8.41;39.21
73671;BME280;61968;48.178;11.566;2024-02-15T05:42:58;96227.25;;;8.37;39.58
73671;BME280;61968;48.178;11.566;2024-02-15T05:45:30;96233.09;;;8.39;39.52
73671;BME280;61968;48.178;11.566;2024-02-15T05:48:04;96234.53;;;8.35;39.29
73671;BME280;61968;48.178;11.566;2024-02-15T05:50:32;96226.63;;;8.35;39.54
73671;BME280;61968;48.178;11.566;2024-02-15T05:53:00;96230.47;;;8.32;39.57
73671;BME280;61968;48.178;11.566;2024-02-15T05:55:26;96224.19;;;8.33;39.17
73671;BME280;61968;48.178;11.566;2024-02-15T05:57:54;96231.28;;;8.33;39.37
73671;BME280;61968;48.178;11.566;2024-02-15T06:00:20;96226.41;;;8.30;39.73
73671;BME280;61968;48.178;11.566;2024-02-15T06:02:47;96225.41;;;8.31;39.65
73671;BME280;61968;48.178;11.566;2024-02-15T06:05:14;96215.69;;;8.31;39.36
73671;BME280;61968;48.178;11.566;2024-02-15T06:07:42;96219.13;;;8.32;39.30
73671;BME280;61968;48.178;11.566;2024-02-15T06:10:10;96216.69;;;8.30;39.54
73671;BME280;61968;48.178;11.566;2024-02-15T06:12:37;96219.72;;;8.27;39.23
73671;BME280;61968;48.178;11.566;2024-02-15T06:15:03;96229.88;;;8.24;39.37
73671;BME280;61968;48.178;11.566;2024-02-15T06:17:30;96231.28;;;8.26;39.47
73671;BME280;61968;48.178;11.566;2024-02-15T06:19:57;96226.44;;;8.23;39.44
73671;BME280;61968;48.178;11.566;2024-02-15T06:22:24;96239.59;;;8.23;39.75
73671;BME280;61968;48.178;11.566;2024-02-15T06:24:51;96237.78;;;8.24;39.64
73671;BME280;61968;48.178;11.566;2024-02-15T06:27:19;96234.94;;;8.19;39.61
73671;BME280;61968;48.178;11.566;2024-02-15T06:29:45;96240.81;;;8.21;39.69
73671;BME280;61968;48.178;11.566;2024-02-15T06:32:30;96240.63;;;8.22;39.43
73671;BME280;61968;48.178;11.566;2024-02-15T06:35:15;96246.69;;;8.23;39.60
73671;BME280;61968;48.178;11.566;2024-02-15T06:37:59;96243.84;;;8.24;39.52
73671;BME280;61968;48.178;11.566;2024-02-15T06:40:43;96241.81;;;8.26;39.19
73671;BME280;61968;48.178;11.566;2024-02-15T06:43:11;96245.88;;;8.16;39.52
73671;BME280;61968;48.178;11.566;2024-02-15T06:45:37;96255.81;;;8.20;39.74
73671;BME280;61968;48.178;11.566;2024-02-15T06:48:07;96257.22;;;8.23;40.21
73671;BME280;61968;48.178;11.566;2024-02-15T06:50:33;96254.59;;;8.23;40.22
73671;BME280;61968;48.178;11.566;2024-02-15T06:53:02;96255.59;;;8.22;39.48
73671;BME280;61968;48.178;11.566;2024-02-15T06:55:29;96258.84;;;8.24;39.38
73671;BME280;61968;48.178;11.566;2024-02-15T06:57:55;96258.03;;;8.23;38.68
73671;BME280;61968;48.178;11.566;2024-02-15T07:00:23;96251.16;;;8.22;38.88
73671;BME280;61968;48.178;11.566;2024-02-15T07:02:50;96254.59;;;8.16;39.25
73671;BME280;61968;48.178;11.566;2024-02-15T07:05:16;96256.84;;;8.19;39.00
73671;BME280;61968;48.178;11.566;2024-02-15T07:07:43;96258.84;;;8.24;38.87
73671;BME280;61968;48.178;11.566;2024-02-15T07:10:09;96255.19;;;8.25;38.77
73671;BME280;61968;48.178;11.566;2024-02-15T07:12:38;96256.81;;;8.26;38.81
73671;BME280;61968;48.178;11.566;2024-02-15T07:15:06;96253.38;;;8.32;38.71
73671;BME280;61968;48.178;11.566;2024-02-15T07:17:35;96253.16;;;8.27;38.78
73671;BME280;61968;48.178;11.566;2024-02-15T07:20:03;96258.03;;;8.23;39.00
73671;BME280;61968;48.178;11.566;2024-02-15T07:22:30;96250.72;;;8.19;38.94
73671;BME280;61968;48.178;11.566;2024-02-15T07:24:57;96256.59;;;8.27;39.13
73671;BME280;61968;48.178;11.566;2024-02-15T07:27:24;96247.50;;;8.30;39.07
73671;BME280;61968;48.178;11.566;2024-02-15T07:29:52;96249.53;;;8.41;38.98
73671;BME280;61968;48.178;11.566;2024-02-15T07:32:19;96241.41;;;8.43;38.78
73671;BME280;61968;48.178;11.566;2024-02-15T07:34:47;96252.56;;;8.51;38.97
73671;BME280;61968;48.178;11.566;2024-02-15T07:37:13;96246.88;;;8.48;38.55
73671;BME280;61968;48.178;11.566;2024-02-15T07:39:41;96245.06;;;8.48;38.44
73671;BME280;61968;48.178;11.566;2024-02-15T07:42:08;96242.22;;;8.56;38.38
73671;BME280;61968;48.178;11.566;2024-02-15T07:44:34;96247.50;;;8.56;38.49
73671;BME280;61968;48.178;11.566;2024-02-15T07:47:02;96250.72;;;8.52;38.43
73671;BME280;61968;48.178;11.566;2024-02-15T07:49:30;96237.75;;;8.57;38.55
73671;BME280;61968;48.178;11.566;2024-02-15T07:51:57;96236.53;;;8.60;38.06
73671;BME280;61968;48.178;11.566;2024-02-15T07:54:25;96239.41;;;8.38;38.00
73671;BME280;61968;48.178;11.566;2024-02-15T07:56:53;96237.38;;;8.47;37.86
73671;BME280;61968;48.178;11.566;2024-02-15T07:59:19;96231.50;;;8.38;38.18
73671;BME280;61968;48.178;11.566;2024-02-15T08:01:45;96226.81;;;8.47;38.01
73671;BME280;61968;48.178;11.566;2024-02-15T08:04:15;96226.00;;;8.53;37.76
73671;BME280;61968;48.178;11.566;2024-02-15T08:06:42;96228.84;;;8.51;37.08
73671;BME280;61968;48.178;11.566;2024-02-15T08:09:10;96226.44;;;8.43;38.02
73671;BME280;61968;48.178;11.566;2024-02-15T08:11:39;96229.63;;;8.65;37.34
73671;BME280;61968;48.178;11.566;2024-02-15T08:14:06;96221.13;;;8.83;36.65
73671;BME280;61968;48.178;11.566;2024-02-15T08:16:35;96231.47;;;8.78;36.87
73671;BME280;61968;48.178;11.566;2024-02-15T08:19:02;96218.88;;;8.87;36.76
73671;BME280;61968;48.178;11.566;2024-02-15T08:21:31;96224.75;;;8.82;36.35
73671;BME280;61968;48.178;11.566;2024-02-15T08:24:00;96206.47;;;8.87;36.85
73671;BME280;61968;48.178;11.566;2024-02-15T08:26:28;96209.09;;;8.94;36.88
73671;BME280;61968;48.178;11.566;2024-02-15T08:28:55;96212.53;;;9.01;36.63
73671;BME280;61968;48.178;11.566;2024-02-15T08:31:22;96208.22;;;9.07;36.64
73671;BME280;61968;48.178;11.566;2024-02-15T08:33:48;96213.69;;;9.12;36.80
73671;BME280;61968;48.178;11.566;2024-02-15T08:36:15;96216.56;;;9.10;36.26
73671;BME280;61968;48.178;11.566;2024-02-15T08:38:41;96212.47;;;9.14;36.53
73671;BME280;61968;48.178;11.566;2024-02-15T08:41:08;96207.97;;;9.28;36.06
73671;BME280;61968;48.178;11.566;2024-02-15T08:43:38;96203.50;;;9.29;36.04
73671;BME280;61968;48.178;11.566;2024-02-15T08:46:07;96194.94;;;9.33;36.24
73671;BME280;61968;48.178;11.566;2024-02-15T08:48:34;96204.88;;;9.38;36.14
73671;BME280;61968;48.178;11.566;2024-02-15T08:51:01;96202.44;;;9.36;36.23
73671;BME280;61968;48.178;11.566;2024-02-15T08:53:27;96191.03;;;9.42;36.07
73671;BME280;61968;48.178;11.566;2024-02-15T08:55:54;96202.44;;;9.36;36.17
73671;BME280;61968;48.178;11.566;2024-02-15T08:58:20;96199.34;;;9.46;36.19
73671;BME280;61968;48.178;11.566;2024-02-15T09:00:48;96195.69;;;9.47;35.95
73671;BME280;61968;48.178;11.566;2024-02-15T09:03:15;96194.06;;;9.46;36.12
73671;BME280;61968;48.178;11.566;2024-02-15T09:05:41;96203.38;;;9.48;36.17
73671;BME280;61968;48.178;11.566;2024-02-15T09:08:08;96199.72;;;9.49;36.06
73671;BME280;61968;48.178;11.566;2024-02-15T09:10:34;96198.28;;;9.54;36.16
73671;BME280;61968;48.178;11.566;2024-02-15T09:13:02;96203.31;;;9.62;36.38
73671;BME280;61968;48.178;11.566;2024-02-15T09:15:28;96198.84;;;9.62;36.48
73671;BME280;61968;48.178;11.566;2024-02-15T09:17:57;96191.31;;;9.66;36.39
73671;BME280;61968;48.178;11.566;2024-02-15T09:20:24;96184.56;;;9.70;36.19
73671;BME280;61968;48.178;11.566;2024-02-15T09:22:54;96188.16;;;9.82;36.24
73671;BME280;61968;48.178;11.566;2024-02-15T09:25:22;96189.81;;;9.83;36.39
73671;BME280;61968;48.178;11.566;2024-02-15T09:27:49;96186.19;;;9.78;36.70
73671;BME280;61968;48.178;11.566;2024-02-15T09:30:15;96181.28;;;9.81;36.68
73671;BME280;61968;48.178;11.566;2024-02-15T09:32:43;96176.38;;;9.85;36.80
73671;BME280;61968;48.178;11.566;2024-02-15T09:35:12;96180.91;;;9.71;37.15
73671;BME280;61968;48.178;11.566;2024-02-15T09:37:46;96178.81;;;9.86;37.24
73671;BME280;61968;48.178;11.566;2024-02-15T09:40:14;96175.84;;;10.01;36.65
73671;BME280;61968;48.178;11.566;2024-02-15T09:42:42;96173.59;;;10.05;37.03
73671;BME280;61968;48.178;11.566;2024-02-15T09:45:11;96166.84;;;10.09;37.36
73671;BME280;61968;48.178;11.566;2024-02-15T09:47:39;96162.53;;;10.14;37.67
73671;BME280;61968;48.178;11.566;2024-02-15T09:50:12;96156.97;;;10.23;37.37
73671;BME280;61968;48.178;11.566;2024-02-15T09:52:40;96154.94;;;10.25;37.40
73671;BME280;61968;48.178;11.566;2024-02-15T09:55:08;96151.41;;;10.06;37.63
73671;BME280;61968;48.178;11.566;2024-02-15T09:57:39;96146.66;;;10.14;37.73
73671;BME280;61968;48.178;11.566;2024-02-15T10:00:06;96136.63;;;10.23;37.63
73671;BME280;61968;48.178;11.566;2024-02-15T10:02:34;96135.69;;;10.36;37.53
73671;BME280;61968;48.178;11.566;2024-02-15T10:05:02;96139.44;;;10.28;37.65
73671;BME280;61968;48.178;11.566;2024-02-15T10:07:30;96137.69;;;10.40;37.83
73671;BME280;61968;48.178;11.566;2024-02-15T10:09:56;96138.50;;;10.41;38.15
73671;BME280;61968;48.178;11.566;2024-02-15T10:12:36;96139.09;;;10.43;37.97
73671;BME280;61968;48.178;11.566;2024-02-15T10:15:03;96148.56;;;10.51;37.73
73671;BME280;61968;48.178;11.566;2024-02-15T10:17:32;96138.41;;;10.48;37.80
73671;BME280;61968;48.178;11.566;2024-02-15T10:20:04;96129.41;;;10.55;38.07
73671;BME280;61968;48.178;11.566;2024-02-15T10:22:32;96129.91;;;10.64;38.14
73671;BME280;61968;48.178;11.566;2024-02-15T10:25:10;96139.22;;;10.67;37.91
73671;BME280;61968;48.178;11.566;2024-02-15T10:27:37;96139.38;;;10.72;37.95
73671;BME280;61968;48.178;11.566;2024-02-15T10:30:14;96129.03;;;10.70;38.44
73671;BME280;61968;48.178;11.566;2024-02-15T10:32:41;96132.00;;;10.80;38.08
73671;BME280;61968;48.178;11.566;2024-02-15T10:35:09;96120.38;;;10.81;37.91
73671;BME280;61968;48.178;11.566;2024-02-15T10:37:36;96116.47;;;10.84;38.06
73671;BME280;61968;48.178;11.566;2024-02-15T10:40:06;96109.94;;;10.87;38.04
73671;BME280;61968;48.178;11.566;2024-02-15T10:42:36;96108.25;;;10.92;37.97
73671;BME280;61968;48.178;11.566;2024-02-15T10:45:03;96100.56;;;11.02;37.65
73671;BME280;61968;48.178;11.566;2024-02-15T10:47:31;96106.22;;;11.06;37.08
73671;BME280;61968;48.178;11.566;2024-02-15T10:49:57;96094.34;;;10.97;37.49
73671;BME280;61968;48.178;11.566;2024-02-15T10:52:30;96090.13;;;11.07;37.11
73671;BME280;61968;48.178;11.566;2024-02-15T10:55:03;96087.38;;;11.14;36.89
73671;BME280;61968;48.178;11.566;2024-02-15T10:57:31;96087.63;;;11.13;36.60
73671;BME280;61968;48.178;11.566;2024-02-15T10:59:59;96088.88;;;11.10;36.87
73671;BME280;61968;48.178;11.566;2024-02-15T11:02:37;96081.66;;;11.17;37.29
73671;BME280;61968;48.178;11.566;2024-02-15T11:05:07;96073.25;;;11.20;37.44
73671;BME280;61968;48.178;11.566;2024-02-15T11:07:35;96073.75;;;11.29;37.50
73671;BME280;61968;48.178;11.566;2024-02-15T11:10:06;96067.34;;;11.37;38.11
73671;BME280;61968;48.178;11.566;2024-02-15T11:12:33;96065.50;;;11.49;37.22
73671;BME280;61968;48.178;11.566;2024-02-15T11:15:00;96053.56;;;11.58;37.12
73671;BME280;61968;48.178;11.566;2024-02-15T11:17:46;96065.06;;;11.52;36.45
73671;BME280;61968;48.178;11.566;2024-02-15T11:20:47;96050.91;;;11.58;36.38
73671;BME280;61968;48.178;11.566;2024-02-15T11:23:25;96042.38;;;11.68;36.22
73671;BME280;61968;48.178;11.566;2024-02-15T11:25:54;96038.47;;;11.70;36.39
73671;BME280;61968;48.178;11.566;2024-02-15T11:28:40;96040.69;;;11.73;36.02
73671;BME280;61968;48.178;11.566;2024-02-15T11:34:43;96026.66;;;11.73;36.13
73671;BME280;61968;48.178;11.566;2024-02-15T11:40:24;96014.88;;;12.04;35.99
73671;BME280;61968;48.178;11.566;2024-02-15T11:42:54;96014.06;;;12.15;35.84
73671;BME280;61968;48.178;11.566;2024-02-15T11:45:22;96011.03;;;12.23;35.68
73671;BME280;61968;48.178;11.566;2024-02-15T11:47:53;96007.22;;;12.31;35.62
73671;BME280;61968;48.178;11.566;2024-02-15T11:50:21;96003.06;;;12.35;35.44
73671;BME280;61968;48.178;11.566;2024-02-15T11:52:49;96001.81;;;12.26;35.58
73671;BME280;61968;48.178;11.566;2024-02-15T11:55:18;95997.53;;;12.37;35.40
73671;BME280;61968;48.178;11.566;2024-02-15T11:57:56;96001.53;;;12.39;34.83
73671;BME280;61968;48.178;11.566;2024-02-15T12:00:28;95996.13;;;12.46;35.06
73671;BME280;61968;48.178;11.566;2024-02-15T12:03:14;95994.13;;;12.53;35.23
73671;BME280;61968;48.178;11.566;2024-02-15T12:05:58;95990.50;;;12.71;34.25
73671;BME280;61968;48.178;11.566;2024-02-15T12:08:46;95989.84;;;12.64;34.67
73671;BME280;61968;48.178;11.566;2024-02-15T12:11:30;95986.66;;;12.79;35.75
73671;BME280;61968;48.178;11.566;2024-02-15T12:14:16;95983.19;;;12.78;34.08
73671;BME280;61968;48.178;11.566;2024-02-15T12:17:01;95986.22;;;12.82;33.85
73671;BME280;61968;48.178;11.566;2024-02-15T12:19:48;95969.06;;;12.89;33.64
73671;BME280;61968;48.178;11.566;2024-02-15T12:22:17;95968.28;;;12.89;33.15
73671;BME280;61968;48.178;11.566;2024-02-15T12:24:52;95969.72;;;12.97;33.64
73671;BME280;61968;48.178;11.566;2024-02-15T12:27:19;95968.44;;;12.99;34.24
73671;BME280;61968;48.178;11.566;2024-02-15T12:29:52;95967.47;;;13.05;33.98
73671;BME280;61968;48.178;11.566;2024-02-15T12:32:20;95955.59;;;13.08;32.79
73671;BME280;61968;48.178;11.566;2024-02-15T12:34:47;95961.06;;;13.01;32.71
73671;BME280;61968;48.178;11.566;2024-02-15T12:37:13;95947.06;;;13.06;33.45
73671;BME280;61968;48.178;11.566;2024-02-15T12:39:40;95939.44;;;13.09;32.73
73671;BME280;61968;48.178;11.566;2024-02-15T12:42:06;95942.09;;;13.09;33.36
73671;BME280;61968;48.178;11.566;2024-02-15T12:44:44;95937.31;;;13.11;33.20
73671;BME280;61968;48.178;11.566;2024-02-15T12:47:22;95936.28;;;13.12;32.94
73671;BME280;61968;48.178;11.566;2024-02-15T12:49:50;95938.78;;;13.19;32.76
73671;BME280;61968;48.178;11.566;2024-02-15T12:52:38;95930.06;;;13.24;32.05
73671;BME280;61968;48.178;11.566;2024-02-15T12:55:11;95930.75;;;13.31;31.65
73671;BME280;61968;48.178;11.566;2024-02-15T12:57:38;95928.56;;;13.28;31.58
73671;BME280;61968;48.178;11.566;2024-02-15T13:00:07;95922.91;;;13.41;31.97
73671;BME280;61968;48.178;11.566;2024-02-15T13:02:39;95921.94;;;13.47;31.76
73671;BME280;61968;48.178;11.566;2024-02-15T13:05:06;95915.06;;;13.51;31.12
73671;BME280;61968;48.178;11.566;2024-02-15T13:07:34;95917.63;;;13.58;31.32
73671;BME280;61968;48.178;11.566;2024-02-15T13:10:00;95913.41;;;13.62;30.94
73671;BME280;61968;48.178;11.566;2024-02-15T13:12:28;95911.72;;;13.73;31.26